Time;durP1;ratioP1;P1;durP2;ratioP2;P2;SDS_P1;SDS_P2;PMS_P1;PMS_P2;Temp;Humidity;BMP_temperature;BMP_pressure;BME280_temperature;BME280_humidity;BME280_pressure;Samples;Min_cycle;Max_cycle;Signal;HPM_P1;HPM_P2
2021/12/12 00:02:21;;;;;;;44.35;14.57;;;4.00;95.30;;;;;;5066609;28;20939;-84
2021/12/12 00:04:53;;;;;;;45.47;13.77;;;4.00;95.30;;;;;;5044039;28;20126;-84
2021/12/12 00:07:27;;;;;;;30.38;13.00;;;4.00;95.30;;;;;;5043090;28;20053;-84
2021/12/12 00:10:03;;;;;;;48.50;14.63;;;4.00;95.10;;;;;;5039205;28;20081;-84
2021/12/12 00:12:40;;;;;;;47.22;13.93;;;4.00;95.00;;;;;;5039635;28;20061;-84
2021/12/12 00:15:09;;;;;;;38.60;13.60;;;4.00;95.10;;;;;;5039503;28;20053;-84
2021/12/12 00:17:36;;;;;;;36.92;12.13;;;4.00;95.20;;;;;;5039342;28;20034;-84
2021/12/12 00:20:04;;;;;;;44.80;13.57;;;4.00;95.30;;;;;;5045300;28;20049;-84
2021/12/12 00:22:32;;;;;;;44.95;13.65;;;4.00;95.20;;;;;;5046596;28;20149;-84
2021/12/12 00:24:59;;;;;;;49.13;13.48;;;4.00;95.10;;;;;;5033203;28;20141;-84
2021/12/12 00:27:28;;;;;;;42.78;12.55;;;4.00;95.20;;;;;;5038733;28;20053;-84
2021/12/12 00:30:02;;;;;;;45.63;13.43;;;4.00;95.20;;;;;;5041419;28;20030;-84
2021/12/12 00:32:32;;;;;;;31.90;12.15;;;4.00;95.30;;;;;;5038114;28;20073;-84
2021/12/12 00:35:03;;;;;;;44.20;13.10;;;4.10;95.10;;;;;;5052075;28;20084;-84
2021/12/12 00:37:37;;;;;;;41.75;12.23;;;4.00;95.00;;;;;;5040345;28;20136;-84
2021/12/12 00:40:16;;;;;;;36.85;12.45;;;4.10;95.00;;;;;;5039898;28;20505;-84
2021/12/12 00:42:44;;;;;;;39.13;12.02;;;4.10;95.10;;;;;;5060110;28;20057;-85
2021/12/12 00:45:13;;;;;;;38.38;12.05;;;4.10;95.20;;;;;;5047123;28;20128;-85
2021/12/12 00:47:42;;;;;;;37.45;12.27;;;4.10;95.30;;;;;;5058533;28;20104;-84
2021/12/12 00:50:15;;;;;;;43.85;12.82;;;4.10;95.30;;;;;;5050748;28;20093;-85
2021/12/12 00:52:47;;;;;;;35.20;11.35;;;4.10;95.40;;;;;;5047594;28;20053;-85
2021/12/12 00:55:15;;;;;;;38.22;12.27;;;4.10;95.50;;;;;;5051168;28;20053;-85
2021/12/12 00:57:42;;;;;;;34.08;11.40;;;4.10;95.50;;;;;;5037715;28;20054;-84
2021/12/12 01:00:13;;;;;;;32.60;10.98;;;4.10;95.60;;;;;;5055673;28;20056;-85
2021/12/12 01:02:40;;;;;;;38.90;12.13;;;4.10;95.60;;;;;;5048677;28;20061;-85
2021/12/12 01:05:11;;;;;;;48.03;12.23;;;4.10;95.60;;;;;;5039267;28;20108;-85
2021/12/12 01:07:40;;;;;;;41.70;11.80;;;4.20;95.70;;;;;;5044347;28;20128;-85
2021/12/12 01:10:26;;;;;;;37.97;10.38;;;4.20;95.70;;;;;;5045844;28;20060;-85
2021/12/12 01:12:55;;;;;;;40.60;10.95;;;4.20;95.70;;;;;;5040936;28;20123;-84
2021/12/12 01:15:38;;;;;;;40.42;10.30;;;4.20;95.70;;;;;;5035630;28;20431;-85
2021/12/12 01:18:16;;;;;;;36.28;10.02;;;4.20;95.70;;;;;;5047742;28;20072;-84
2021/12/12 01:20:52;;;;;;;39.20;11.48;;;4.20;95.60;;;;;;5039533;28;20056;-85
2021/12/12 01:23:30;;;;;;;30.25;9.82;;;4.20;95.60;;;;;;5044373;28;20915;-85
2021/12/12 01:26:01;;;;;;;30.83;9.88;;;4.20;95.70;;;;;;5044979;28;20058;-84
2021/12/12 01:28:31;;;;;;;30.10;9.55;;;4.20;95.60;;;;;;5038662;28;20902;-85
2021/12/12 01:31:01;;;;;;;31.17;9.10;;;4.30;95.60;;;;;;5034658;28;20066;-84
2021/12/12 01:33:35;;;;;;;33.30;9.68;;;4.30;95.40;;;;;;5038482;28;20045;-84
2021/12/12 01:36:22;;;;;;;;;;;4.30;95.20;;;;;;5052826;28;20160;-84
2021/12/12 01:38:55;;;;;;;36.75;9.55;;;4.30;95.30;;;;;;5041457;28;19932;-84
2021/12/12 01:41:26;;;;;;;34.60;9.32;;;4.30;95.40;;;;;;5050599;28;20049;-84
2021/12/12 01:44:21;;;;;;;33.60;9.93;;;4.30;95.50;;;;;;5043813;28;20160;-84
2021/12/12 01:46:59;;;;;;;39.25;9.65;;;4.30;95.70;;;;;;5038309;28;20056;-84
2021/12/12 01:49:28;;;;;;;43.78;9.98;;;4.30;95.70;;;;;;5038842;28;20141;-84
2021/12/12 01:52:03;;;;;;;48.53;10.25;;;4.30;95.80;;;;;;5043042;28;20124;-84
2021/12/12 01:54:42;;;;;;;37.78;10.82;;;4.30;95.90;;;;;;5038332;28;20061;-84
2021/12/12 01:57:11;;;;;;;46.25;11.63;;;4.30;95.90;;;;;;5075603;28;20049;-85
2021/12/12 01:59:40;;;;;;;52.58;10.32;;;4.30;96.00;;;;;;5050863;28;20105;-87
2021/12/12 02:02:12;;;;;;;45.05;9.73;;;4.30;96.10;;;;;;5058122;28;20132;-84
2021/12/12 02:04:44;;;;;;;35.10;9.50;;;4.30;96.10;;;;;;5052930;28;20103;-84
2021/12/12 02:07:15;;;;;;;49.00;10.85;;;4.30;96.20;;;;;;5050303;28;20064;-84
2021/12/12 02:09:43;;;;;;;41.30;10.40;;;4.30;96.30;;;;;;5034404;28;20053;-84
2021/12/12 02:12:11;;;;;;;44.10;9.90;;;4.40;96.30;;;;;;5057215;28;20120;-85
2021/12/12 02:14:40;;;;;;;33.20;9.80;;;4.40;96.30;;;;;;5040800;28;20052;-85
2021/12/12 02:17:25;;;;;;;34.78;9.57;;;4.40;96.40;;;;;;5046593;28;20054;-85
2021/12/12 02:22:43;;;;;;;41.67;10.00;;;4.40;96.40;;;;;;5040042;28;20050;-85
2021/12/12 02:36:19;;;;;;;38.08;10.55;;;4.40;96.70;;;;;;5055292;28;20054;-85
2021/12/12 02:38:50;;;;;;;45.17;11.32;;;4.40;96.70;;;;;;5055647;28;20128;-84
2021/12/12 02:41:19;;;;;;;42.30;11.90;;;4.40;96.70;;;;;;5043060;28;20104;-84
2021/12/12 02:43:52;;;;;;;52.60;12.45;;;4.40;96.70;;;;;;5042593;28;20815;-85
2021/12/12 02:46:28;;;;;;;45.13;11.93;;;4.40;96.70;;;;;;5060499;28;20049;-85
2021/12/12 02:49:06;;;;;;;48.67;12.88;;;4.40;96.80;;;;;;5046712;28;20057;-85
2021/12/12 02:51:41;;;;;;;48.47;12.48;;;4.40;96.80;;;;;;5046960;28;20053;-85
2021/12/12 02:54:10;;;;;;;35.20;12.20;;;4.40;96.80;;;;;;5052104;28;20053;-85
2021/12/12 02:56:47;;;;;;;46.83;12.80;;;4.40;96.90;;;;;;5042292;28;20480;-85
2021/12/12 02:59:21;;;;;;;55.85;13.57;;;4.50;96.80;;;;;;5045924;28;20168;-85
2021/12/12 03:02:01;;;;;;;39.13;14.05;;;4.50;96.90;;;;;;5052569;28;20136;-85
2021/12/12 03:04:29;;;;;;;46.15;13.40;;;4.50;97.00;;;;;;5051104;28;20420;-85
2021/12/12 03:06:56;;;;;;;63.50;15.63;;;4.50;97.00;;;;;;5059323;28;20041;-85
2021/12/12 03:09:33;;;;;;;59.08;13.98;;;4.50;97.00;;;;;;5053206;28;20046;-85
2021/12/12 03:12:11;;;;;;;48.03;13.98;;;4.50;97.00;;;;;;5054880;28;20124;-85
2021/12/12 03:14:40;;;;;;;59.25;14.27;;;4.50;97.00;;;;;;5059598;28;20132;-85
2021/12/12 03:17:11;;;;;;;49.92;13.98;;;4.50;97.10;;;;;;5059082;28;20048;-85
2021/12/12 03:19:39;;;;;;;59.85;15.48;;;4.50;97.10;;;;;;5059272;28;20227;-85
2021/12/12 03:22:09;;;;;;;52.50;14.30;;;4.50;97.10;;;;;;5052401;28;20045;-86
2021/12/12 03:24:37;;;;;;;37.30;13.45;;;4.60;97.10;;;;;;5053844;28;20385;-85
2021/12/12 03:27:09;;;;;;;39.35;13.52;;;4.50;97.20;;;;;;5047072;28;20057;-85
2021/12/12 03:29:37;;;;;;;41.75;14.77;;;4.60;97.20;;;;;;5043161;28;20128;-85
2021/12/12 03:32:08;;;;;;;51.25;15.02;;;4.60;97.20;;;;;;5051546;28;20137;-85
2021/12/12 03:34:40;;;;;;;49.60;14.90;;;4.60;97.10;;;;;;5060889;28;20570;-86
2021/12/12 03:37:11;;;;;;;58.53;16.48;;;4.60;97.10;;;;;;5047844;28;20066;-86
2021/12/12 03:39:42;;;;;;;47.65;15.80;;;4.60;97.20;;;;;;5069652;28;20053;-85
2021/12/12 03:42:14;;;;;;;50.22;16.08;;;4.60;97.20;;;;;;5064881;28;20123;-85
2021/12/12 03:44:42;;;;;;;56.50;15.98;;;4.70;97.20;;;;;;5064451;28;20926;-86
2021/12/12 03:47:16;;;;;;;43.47;16.08;;;4.70;97.30;;;;;;5061375;28;20128;-86
2021/12/12 03:49:45;;;;;;;52.25;16.65;;;4.70;97.30;;;;;;5074185;28;20858;-85
2021/12/12 03:52:14;;;;;;;50.15;17.73;;;4.70;97.30;;;;;;5065155;28;20053;-86
2021/12/12 03:54:41;;;;;;;44.47;17.77;;;4.70;97.40;;;;;;5058268;28;20141;-85
2021/12/12 03:57:08;;;;;;;67.57;19.83;;;4.80;97.40;;;;;;5034793;28;20078;-86
2021/12/12 03:59:35;;;;;;;63.63;19.63;;;4.80;97.50;;;;;;5055473;28;20049;-85
2021/12/12 04:02:04;;;;;;;53.65;19.70;;;4.80;97.50;;;;;;5059797;28;20088;-85
2021/12/12 04:04:35;;;;;;;70.20;20.08;;;4.80;97.40;;;;;;5054537;28;20081;-86
2021/12/12 04:07:09;;;;;;;61.08;19.88;;;4.90;97.50;;;;;;5053731;28;20415;-86
2021/12/12 04:09:37;;;;;;;87.03;22.23;;;4.90;97.50;;;;;;5040722;28;20435;-85
2021/12/12 04:12:08;;;;;;;58.63;19.63;;;4.90;97.50;;;;;;5039507;28;20053;-85
2021/12/12 04:14:35;;;;;;;52.53;19.73;;;4.90;97.40;;;;;;5069058;28;20060;-85
2021/12/12 04:17:13;;;;;;;75.55;21.13;;;4.90;97.50;;;;;;5052564;28;20053;-86
2021/12/12 04:19:45;;;;;;;68.55;20.77;;;4.90;97.50;;;;;;5060394;28;20112;-86
2021/12/12 04:22:12;;;;;;;99.40;23.77;;;4.90;97.50;;;;;;5053246;28;20053;-86
2021/12/12 04:24:43;;;;;;;97.35;23.80;;;4.90;97.50;;;;;;5051944;28;20057;-86
2021/12/12 04:27:11;;;;;;;88.10;23.27;;;5.00;97.50;;;;;;5050251;28;20137;-86
2021/12/12 04:29:42;;;;;;;75.03;25.20;;;5.00;97.50;;;;;;5051279;28;20053;-86
2021/12/12 04:32:15;;;;;;;75.38;23.13;;;5.00;97.50;;;;;;5054734;28;20081;-85
2021/12/12 04:34:50;;;;;;;60.13;21.63;;;5.00;97.60;;;;;;5056640;28;20109;-86
2021/12/12 04:37:18;;;;;;;92.22;25.25;;;5.00;97.60;;;;;;5052682;28;20107;-85
2021/12/12 04:39:53;;;;;;;81.68;24.80;;;5.10;97.60;;;;;;5054877;28;20053;-85
2021/12/12 04:42:33;;;;;;;68.15;22.73;;;5.10;97.60;;;;;;5076637;28;20056;-85
2021/12/12 04:45:37;;;;;;;65.93;25.00;;;5.10;97.60;;;;;;5048309;28;20060;-85
2021/12/12 04:51:51;;;;;;;71.22;22.90;;;5.20;97.70;;;;;;5049813;28;20050;-85
2021/12/12 04:54:30;;;;;;;78.10;25.65;;;5.20;97.70;;;;;;5056517;28;20060;-85
2021/12/12 04:57:03;;;;;;;71.55;26.95;;;5.30;97.80;;;;;;5057279;28;20894;-85
2021/12/12 04:59:46;;;;;;;86.68;26.60;;;5.30;97.70;;;;;;5054298;28;20053;-86
2021/12/12 05:02:37;;;;;;;122.03;27.87;;;5.30;97.80;;;;;;5044269;28;20567;-85
2021/12/12 05:05:19;;;;;;;71.28;26.55;;;5.30;97.80;;;;;;5053341;28;20064;-85
2021/12/12 05:08:04;;;;;;;74.95;26.95;;;5.40;97.80;;;;;;5050855;28;20140;-85
2021/12/12 05:10:36;;;;;;;105.68;28.40;;;5.40;97.80;;;;;;5042455;28;20910;-86
2021/12/12 05:13:25;;;;;;;132.63;31.30;;;5.40;97.90;;;;;;5052451;28;20819;-85
2021/12/12 05:15:58;;;;;;;73.80;27.25;;;5.50;97.80;;;;;;5048380;28;20916;-85
2021/12/12 05:18:36;;;;;;;95.28;29.55;;;5.50;97.90;;;;;;5066061;28;20864;-85
2021/12/12 05:21:10;;;;;;;99.30;27.60;;;5.50;97.90;;;;;;5039976;28;20053;-85
2021/12/12 05:23:40;;;;;;;;;;;5.50;97.90;;;;;;5043557;28;20520;-86
2021/12/12 05:26:12;;;;;;;68.60;25.25;;;5.50;97.80;;;;;;5059999;28;19995;-86
2021/12/12 05:28:49;;;;;;;101.10;28.13;;;5.50;97.90;;;;;;5051233;28;20049;-85
2021/12/12 05:31:21;;;;;;;88.03;27.75;;;5.50;97.90;;;;;;5055417;28;20057;-85
2021/12/12 05:33:55;;;;;;;76.25;28.20;;;5.50;97.80;;;;;;5051354;28;20045;-85
2021/12/12 05:36:23;;;;;;;107.72;30.25;;;5.60;97.80;;;;;;5044531;28;20055;-85
2021/12/12 05:38:50;;;;;;;85.20;29.83;;;5.60;97.90;;;;;;5047741;28;20567;-85
2021/12/12 05:41:20;;;;;;;90.85;28.48;;;5.60;97.90;;;;;;5046053;28;20052;-85
2021/12/12 05:43:49;;;;;;;80.75;28.17;;;5.60;97.90;;;;;;5046414;28;20076;-85
2021/12/12 05:46:18;;;;;;;101.15;31.55;;;5.60;97.80;;;;;;5048486;28;20054;-85
2021/12/12 05:48:46;;;;;;;85.28;28.67;;;5.70;97.90;;;;;;5040231;28;20081;-85
2021/12/12 05:51:15;;;;;;;82.35;29.60;;;5.70;97.90;;;;;;5043013;28;20060;-85
2021/12/12 05:53:42;;;;;;;133.63;31.88;;;5.70;97.90;;;;;;5047279;28;20053;-85
2021/12/12 05:56:15;;;;;;;132.43;32.20;;;5.70;97.90;;;;;;5048282;28;20056;-85
2021/12/12 05:58:42;;;;;;;109.75;30.70;;;5.70;97.90;;;;;;5065787;28;20493;-85
2021/12/12 06:01:10;;;;;;;153.05;31.63;;;5.70;97.90;;;;;;5053044;28;20500;-85
2021/12/12 06:03:42;;;;;;;108.43;29.23;;;5.70;97.90;;;;;;5068726;28;20050;-85
2021/12/12 06:06:15;;;;;;;132.75;30.08;;;5.70;97.90;;;;;;5047620;28;20050;-85
2021/12/12 06:08:44;;;;;;;117.80;29.52;;;5.70;97.90;;;;;;5052141;28;20850;-85
2021/12/12 06:11:13;;;;;;;145.85;31.98;;;5.80;97.90;;;;;;5062730;28;20128;-85
2021/12/12 06:13:42;;;;;;;111.05;32.35;;;5.80;97.90;;;;;;5056684;28;20835;-85
2021/12/12 06:16:18;;;;;;;116.63;30.90;;;5.80;97.90;;;;;;5049704;28;20054;-86
2021/12/12 06:18:52;;;;;;;90.45;30.52;;;5.80;97.90;;;;;;5051154;28;20056;-85
2021/12/12 06:21:19;;;;;;;121.07;32.97;;;5.90;98.00;;;;;;5051044;28;20159;-85
2021/12/12 06:23:46;;;;;;;152.68;31.90;;;5.90;97.90;;;;;;5057419;28;20791;-85
2021/12/12 06:26:20;;;;;;;119.20;31.05;;;5.90;98.00;;;;;;5055796;28;20079;-85
2021/12/12 06:28:48;;;;;;;109.72;31.50;;;5.90;97.90;;;;;;5039274;28;20129;-85
2021/12/12 06:31:17;;;;;;;139.35;32.50;;;5.90;97.90;;;;;;5049612;28;20858;-85
2021/12/12 06:33:44;;;;;;;109.50;31.98;;;5.90;98.00;;;;;;5056780;28;20054;-85
2021/12/12 06:36:13;;;;;;;130.68;32.33;;;6.00;98.00;;;;;;5044752;28;20170;-86
2021/12/12 06:38:46;;;;;;;92.78;31.25;;;6.00;98.00;;;;;;5040853;28;20863;-85
2021/12/12 06:41:23;;;;;;;147.27;33.88;;;6.00;98.00;;;;;;5047066;28;20060;-85
2021/12/12 06:43:53;;;;;;;162.18;32.95;;;6.00;98.00;;;;;;5050695;28;20049;-85
2021/12/12 06:46:23;;;;;;;182.68;35.38;;;6.00;98.00;;;;;;5050135;28;20116;-85
2021/12/12 06:48:52;;;;;;;119.78;32.42;;;6.10;98.00;;;;;;5043218;28;20054;-85
2021/12/12 06:51:21;;;;;;;137.77;33.17;;;6.10;98.00;;;;;;5050266;28;20065;-85
2021/12/12 06:53:48;;;;;;;246.30;38.50;;;6.10;98.00;;;;;;5053958;28;20603;-85
2021/12/12 06:56:17;;;;;;;181.40;33.90;;;6.10;98.00;;;;;;5070063;28;20124;-85
2021/12/12 06:58:48;;;;;;;158.10;33.85;;;6.10;98.00;;;;;;5041176;28;20992;-85
2021/12/12 07:01:23;;;;;;;204.10;36.45;;;6.10;98.00;;;;;;5049542;28;20064;-86
2021/12/12 07:03:52;;;;;;;212.15;38.00;;;6.20;98.00;;;;;;5048918;28;20081;-85
2021/12/12 07:06:21;;;;;;;172.00;38.78;;;6.20;98.10;;;;;;5043815;28;20193;-84
2021/12/12 07:08:56;;;;;;;259.00;39.72;;;6.20;98.00;;;;;;5044843;28;20061;-85
2021/12/12 07:11:25;;;;;;;233.30;39.35;;;6.20;98.10;;;;;;5036808;28;20120;-85
2021/12/12 07:13:52;;;;;;;173.65;37.58;;;6.30;98.00;;;;;;5041930;28;20092;-86
2021/12/12 07:16:20;;;;;;;207.80;43.58;;;6.30;98.10;;;;;;5042015;28;20045;-85
2021/12/12 07:18:48;;;;;;;172.35;38.30;;;6.30;98.00;;;;;;5041644;28;20872;-85
2021/12/12 07:21:17;;;;;;;203.45;41.83;;;6.30;98.10;;;;;;5048272;28;20136;-85
2021/12/12 07:23:49;;;;;;;304.70;43.17;;;6.30;98.00;;;;;;5049380;28;20060;-85
2021/12/12 07:26:18;;;;;;;269.58;41.35;;;6.40;98.10;;;;;;5046838;28;20058;-86
2021/12/12 07:28:46;;;;;;;199.38;38.65;;;6.40;98.10;;;;;;5050565;28;20045;-85
2021/12/12 07:31:18;;;;;;;209.90;43.53;;;6.40;98.00;;;;;;5050363;28;20053;-84
2021/12/12 07:33:49;;;;;;;322.42;45.00;;;6.40;98.10;;;;;;5051199;28;20421;-85
2021/12/12 07:36:18;;;;;;;259.55;42.25;;;6.40;98.10;;;;;;5046874;28;20108;-85
2021/12/12 07:38:54;;;;;;;260.00;44.33;;;6.50;98.10;;;;;;5049869;28;20050;-85
2021/12/12 07:41:24;;;;;;;325.90;45.85;;;6.50;98.10;;;;;;5070469;28;20141;-85
2021/12/12 07:43:55;;;;;;;382.08;47.70;;;6.50;98.10;;;;;;5040910;28;20057;-85
2021/12/12 07:46:23;;;;;;;322.13;47.30;;;6.50;98.10;;;;;;5046589;28;20050;-85
2021/12/12 07:48:56;;;;;;;380.13;49.22;;;6.50;98.10;;;;;;5047809;28;20140;-85
2021/12/12 07:51:25;;;;;;;338.13;47.20;;;6.60;98.10;;;;;;5045892;28;20069;-85
2021/12/12 07:53:57;;;;;;;309.58;47.85;;;6.60;98.10;;;;;;5047033;28;20497;-85
2021/12/12 07:56:30;;;;;;;230.82;46.05;;;6.60;98.20;;;;;;5035298;28;20061;-85
2021/12/12 07:58:59;;;;;;;332.23;48.97;;;6.60;98.20;;;;;;5053586;28;20065;-85
2021/12/12 08:01:27;;;;;;;378.45;48.30;;;6.70;98.20;;;;;;5056131;28;20539;-84
2021/12/12 08:03:58;;;;;;;452.85;53.25;;;6.70;98.20;;;;;;5048092;28;20057;-85
2021/12/12 08:06:25;;;;;;;346.95;47.33;;;6.70;98.10;;;;;;5042792;28;20054;-85
2021/12/12 08:08:53;;;;;;;406.85;49.20;;;6.70;98.20;;;;;;5061618;28;20530;-84
2021/12/12 08:11:29;;;;;;;389.60;50.30;;;6.70;98.20;;;;;;5035920;28;20084;-85
2021/12/12 08:13:57;;;;;;;296.63;49.13;;;6.80;98.20;;;;;;5045146;28;20044;-84
2021/12/12 08:16:29;;;;;;;396.65;52.08;;;6.80;98.10;;;;;;5046235;28;20105;-84
2021/12/12 08:19:00;;;;;;;415.67;51.83;;;6.80;98.20;;;;;;5052047;28;20069;-85
2021/12/12 08:21:29;;;;;;;323.58;48.08;;;6.80;98.10;;;;;;5039803;28;20052;-85
2021/12/12 08:23:59;;;;;;;322.30;49.92;;;6.80;98.10;;;;;;5037765;28;20050;-85
2021/12/12 08:26:26;;;;;;;335.27;48.53;;;6.90;98.10;;;;;;5042033;28;20057;-85
2021/12/12 08:28:53;;;;;;;401.55;51.85;;;6.90;98.10;;;;;;5044825;28;20049;-85
2021/12/12 08:31:20;;;;;;;314.20;48.70;;;7.00;98.20;;;;;;5051154;28;20053;-85
2021/12/12 08:33:47;;;;;;;388.20;50.55;;;7.00;98.10;;;;;;5040772;28;20042;-85
2021/12/12 08:36:15;;;;;;;295.30;47.83;;;7.00;98.10;;;;;;5033617;28;20074;-85
2021/12/12 08:38:42;;;;;;;290.15;45.45;;;7.00;98.20;;;;;;5042521;28;20452;-85
2021/12/12 08:41:10;;;;;;;322.20;49.97;;;7.00;98.20;;;;;;5043745;28;20065;-85
2021/12/12 08:43:39;;;;;;;236.50;43.45;;;7.10;98.10;;;;;;5042299;28;20054;-85
2021/12/12 08:46:09;;;;;;;280.85;47.28;;;7.10;98.20;;;;;;5044245;28;20146;-85
2021/12/12 08:48:43;;;;;;;379.30;51.28;;;7.10;98.30;;;;;;5043157;28;20053;-85
2021/12/12 08:51:43;;;;;;;406.92;51.63;;;7.20;98.20;;;;;;5040757;28;20049;-85
2021/12/12 08:54:14;;;;;;;385.05;50.65;;;7.20;98.20;;;;;;5038113;28;20056;-84
2021/12/12 08:56:46;;;;;;;342.38;49.22;;;7.20;98.10;;;;;;5051217;28;20095;-85
2021/12/12 08:59:40;;;;;;;284.70;48.22;;;7.30;98.20;;;;;;5039922;28;20107;-85
2021/12/12 09:02:31;;;;;;;345.13;48.80;;;7.30;98.20;;;;;;5035743;28;20050;-85
2021/12/12 09:05:13;;;;;;;360.45;49.55;;;7.30;98.20;;;;;;5053960;28;20136;-85
2021/12/12 09:07:45;;;;;;;386.30;49.10;;;7.30;98.20;;;;;;5038273;28;20085;-85
2021/12/12 09:10:21;;;;;;;328.98;48.40;;;7.40;98.20;;;;;;5038095;28;20061;-86
2021/12/12 09:13:35;;;;;;;300.33;45.85;;;7.40;98.20;;;;;;5041838;28;20056;-86
2021/12/12 09:16:11;;;;;;;253.95;42.00;;;7.40;98.20;;;;;;5025398;28;20118;-85
2021/12/12 09:19:08;;;;;;;361.20;46.15;;;7.50;98.30;;;;;;5031445;28;20571;-85
2021/12/12 09:21:49;;;;;;;277.90;41.30;;;7.50;98.30;;;;;;5036516;28;20564;-85
2021/12/12 09:24:33;;;;;;;260.00;40.40;;;7.50;98.30;;;;;;5032456;28;20861;-85
2021/12/12 09:27:03;;;;;;;246.67;42.13;;;7.60;98.20;;;;;;5025938;28;20107;-85
2021/12/12 09:29:40;;;;;;;218.68;39.13;;;7.60;98.30;;;;;;5034427;28;20108;-85
2021/12/12 09:32:23;;;;;;;315.58;47.08;;;7.60;98.30;;;;;;5030248;28;20061;-85
2021/12/12 09:35:39;;;;;;;355.03;47.33;;;7.70;98.30;;;;;;5045360;28;20060;-85
2021/12/12 09:38:39;;;;;;;294.17;45.00;;;7.70;98.30;;;;;;5033800;28;20058;-86
2021/12/12 09:41:31;;;;;;;301.08;47.22;;;7.70;98.30;;;;;;5041641;28;20589;-85
2021/12/12 09:44:24;;;;;;;306.33;46.65;;;7.70;98.20;;;;;;5041629;28;20136;-85
2021/12/12 09:47:45;;;;;;;328.42;47.03;;;7.70;98.30;;;;;;5042527;28;20049;-85
2021/12/12 09:53:32;;;;;;;287.92;45.78;;;7.80;98.20;;;;;;5034915;28;20060;-86
2021/12/12 09:56:17;;;;;;;362.42;47.80;;;7.80;98.30;;;;;;5048887;28;20057;-85
2021/12/12 09:58:53;;;;;;;325.70;44.33;;;7.90;98.20;;;;;;5039276;28;20674;-86
2021/12/12 10:01:28;;;;;;;136.85;35.03;;;7.90;98.20;;;;;;5049217;28;20141;-85
2021/12/12 10:04:07;;;;;;;272.58;40.97;;;8.00;98.20;;;;;;5033845;28;20053;-85
2021/12/12 10:06:52;;;;;;;155.95;35.50;;;8.00;98.20;;;;;;5063593;28;20049;-85
2021/12/12 10:09:32;;;;;;;159.57;33.92;;;8.00;98.20;;;;;;5041002;28;20155;-86
2021/12/12 10:12:13;;;;;;;277.75;39.83;;;8.00;98.20;;;;;;5039232;28;20056;-85
2021/12/12 10:14:43;;;;;;;138.18;33.75;;;8.10;98.20;;;;;;5045503;28;20088;-86
2021/12/12 10:18:02;;;;;;;168.25;35.63;;;8.10;98.20;;;;;;5035501;28;20079;-86
2021/12/12 10:20:40;;;;;;;226.93;35.72;;;8.10;98.20;;;;;;5037129;28;20061;-85
2021/12/12 10:23:22;;;;;;;98.93;27.75;;;8.10;98.10;;;;;;5047517;28;20053;-85
2021/12/12 10:29:33;;;;;;;219.05;34.47;;;8.10;98.10;;;;;;4982514;28;20066;-85
2021/12/12 10:32:11;;;;;;;249.57;35.83;;;8.10;98.10;;;;;;4998987;28;20058;-86
2021/12/12 10:34:49;;;;;;;192.32;33.97;;;8.20;98.00;;;;;;4993353;28;20634;-85
2021/12/12 10:37:29;;;;;;;121.63;30.63;;;8.10;98.00;;;;;;5001748;28;20920;-85
2021/12/12 10:40:15;;;;;;;101.38;29.45;;;8.10;98.00;;;;;;4985837;28;20058;-85
2021/12/12 10:42:52;;;;;;;158.32;30.13;;;8.10;98.00;;;;;;4992324;28;20572;-85
2021/12/12 10:45:31;;;;;;;97.00;27.42;;;8.10;97.90;;;;;;5000350;28;20050;-85
2021/12/12 10:48:04;;;;;;;143.98;31.20;;;8.10;98.00;;;;;;4979562;28;20059;-86
2021/12/12 10:50:48;;;;;;;;;;;8.10;97.90;;;;;;5009291;28;20050;-85
2021/12/12 10:53:35;;;;;;;117.50;27.65;;;8.10;97.90;;;;;;5004969;28;20024;-85
2021/12/12 10:56:15;;;;;;;198.82;32.78;;;8.20;97.90;;;;;;5007813;28;20063;-85
2021/12/12 10:58:58;;;;;;;165.15;30.40;;;8.20;98.00;;;;;;4995514;28;20487;-85
2021/12/12 11:01:32;;;;;;;88.63;27.05;;;8.30;97.90;;;;;;5011368;28;20051;-85
2021/12/12 11:04:30;;;;;;;136.52;29.23;;;8.30;97.90;;;;;;5011938;28;20081;-85
2021/12/12 11:07:03;;;;;;;88.85;27.77;;;8.30;97.90;;;;;;5021327;28;20064;-85
2021/12/12 11:09:40;;;;;;;102.00;27.67;;;8.30;97.90;;;;;;5048873;28;20867;-85
2021/12/12 11:12:24;;;;;;;165.57;31.25;;;8.30;97.90;;;;;;5058579;28;20145;-86
2021/12/12 11:15:13;;;;;;;94.88;27.50;;;8.30;97.90;;;;;;5053184;28;20165;-85
2021/12/12 11:17:48;;;;;;;104.68;28.60;;;8.40;97.90;;;;;;5042854;28;20883;-86
2021/12/12 11:20:35;;;;;;;124.00;30.95;;;8.40;97.80;;;;;;5052967;28;20088;-85
2021/12/12 11:23:09;;;;;;;204.52;34.28;;;8.40;97.90;;;;;;5042997;28;20755;-85
2021/12/12 11:25:43;;;;;;;114.95;29.65;;;8.40;97.80;;;;;;5058202;28;20056;-85
2021/12/12 11:28:15;;;;;;;116.20;28.13;;;8.50;97.90;;;;;;5047570;28;20461;-85
2021/12/12 11:30:55;;;;;;;145.15;30.73;;;8.50;97.90;;;;;;5053267;28;20428;-86
2021/12/12 11:33:27;;;;;;;129.40;29.33;;;8.50;97.90;;;;;;5044474;28;20056;-85
2021/12/12 11:35:56;;;;;;;109.95;28.05;;;8.60;97.90;;;;;;5050177;28;20133;-85
2021/12/12 11:39:03;;;;;;;122.55;27.73;;;8.60;97.90;;;;;;5048038;28;20076;-85
2021/12/12 11:41:34;;;;;;;80.47;25.60;;;8.60;97.90;;;;;;5054934;28;20056;-86
2021/12/12 11:44:13;;;;;;;104.38;27.55;;;8.70;97.90;;;;;;5053426;28;20038;-85
2021/12/12 11:46:59;;;;;;;171.85;30.98;;;8.70;97.90;;;;;;5054656;28;20334;-85
2021/12/12 11:49:48;;;;;;;105.40;27.00;;;8.70;97.90;;;;;;5058607;28;20129;-85
2021/12/12 11:52:33;;;;;;;104.68;27.23;;;8.70;97.90;;;;;;5051821;28;20083;-85
2021/12/12 11:55:26;;;;;;;99.10;26.67;;;8.80;97.80;;;;;;5038316;28;20076;-85
2021/12/12 11:57:59;;;;;;;115.75;27.55;;;8.80;97.90;;;;;;5051306;28;20060;-85
2021/12/12 12:00:37;;;;;;;89.43;24.75;;;8.80;97.90;;;;;;5046386;28;20096;-85
2021/12/12 12:03:24;;;;;;;108.85;25.60;;;8.80;97.90;;;;;;5037541;28;20237;-85
2021/12/12 12:06:10;;;;;;;68.72;22.42;;;8.80;97.90;;;;;;5049026;28;20061;-85
2021/12/12 12:08:52;;;;;;;71.50;23.77;;;8.90;97.90;;;;;;5047989;28;20144;-85
2021/12/12 12:11:54;;;;;;;106.15;25.00;;;8.90;97.80;;;;;;5054368;28;20054;-85
2021/12/12 12:14:53;;;;;;;75.05;22.80;;;8.90;97.80;;;;;;5048439;28;20503;-85
2021/12/12 12:17:23;;;;;;;85.65;23.85;;;8.90;97.90;;;;;;5048347;28;20141;-85
2021/12/12 12:20:11;;;;;;;123.32;25.30;;;8.90;97.80;;;;;;5043860;28;20860;-85
2021/12/12 12:27:06;;;;;;;83.70;22.85;;;9.00;97.90;;;;;;5041063;28;20058;-85
2021/12/12 12:30:20;;;;;;;93.57;22.55;;;9.00;97.90;;;;;;5042228;28;20084;-85
2021/12/12 12:32:50;;;;;;;150.63;25.27;;;9.00;97.80;;;;;;5051968;28;20056;-85
2021/12/12 12:40:11;;;;;;;100.93;23.27;;;9.00;97.90;;;;;;5011266;28;20501;-85
2021/12/12 12:43:44;;;;;;;144.48;26.20;;;9.00;97.80;;;;;;5021242;28;20473;-85
2021/12/12 12:47:15;;;;;;;;;;;;;;;;;;;;;
2021/12/12 12:50:28;;;;;;;93.53;24.00;;;9.10;97.90;;;;;;4990385;28;20095;-85
2021/12/12 12:53:51;;;;;;;125.43;24.98;;;9.10;97.90;;;;;;4979271;28;20051;-85
2021/12/12 13:00:47;;;;;;;84.80;23.83;;;9.20;97.90;;;;;;4912795;29;20120;-85
2021/12/12 13:03:54;;;;;;;90.13;24.92;;;9.20;97.80;;;;;;4896095;29;20144;-86
2021/12/12 13:07:16;;;;;;;104.68;25.25;;;9.20;97.90;;;;;;4897529;29;20143;-85
2021/12/12 13:10:21;;;;;;;116.75;26.95;;;9.30;97.90;;;;;;4920200;28;20059;-85
2021/12/12 13:13:39;;;;;;;138.88;27.92;;;9.30;97.90;;;;;;4933920;28;20127;-86
2021/12/12 13:17:00;;;;;;;132.77;28.73;;;9.30;97.90;;;;;;4942080;28;20159;-85
2021/12/12 13:20:17;;;;;;;97.28;26.90;;;9.40;97.90;;;;;;4950241;28;20867;-86
2021/12/12 13:23:27;;;;;;;135.43;28.08;;;9.40;97.80;;;;;;4937406;28;20834;-86
2021/12/12 13:30:15;;;;;;;160.60;29.10;;;9.50;97.90;;;;;;4892938;29;20065;-85
2021/12/12 13:36:46;;;;;;;;;;;9.50;97.90;;;;;;4930328;28;20051;-85
2021/12/12 13:39:49;;;;;;;119.43;26.33;;;9.50;97.90;;;;;;4936064;28;19927;-86
2021/12/12 13:42:55;;;;;;;79.38;24.30;;;9.50;97.80;;;;;;4948147;28;20056;-86
2021/12/12 13:45:58;;;;;;;97.18;23.95;;;9.50;97.80;;;;;;4940876;28;20511;-85
2021/12/12 13:52:55;;;;;;;107.97;23.95;;;9.60;97.80;;;;;;4895618;29;20699;-85
2021/12/12 13:55:48;;;;;;;180.65;26.30;;;9.60;97.90;;;;;;4904864;29;20053;-85
2021/12/12 13:58:44;;;;;;;132.38;24.38;;;9.60;97.80;;;;;;4899679;29;20049;-85
2021/12/12 14:01:48;;;;;;;78.47;20.58;;;9.60;97.90;;;;;;4849768;29;20049;-85
2021/12/12 14:05:02;;;;;;;120.15;23.42;;;9.60;97.90;;;;;;4859457;29;20150;-86
2021/12/12 14:08:25;;;;;;;78.03;20.13;;;9.60;97.80;;;;;;4947320;28;20470;-86
2021/12/12 14:11:07;;;;;;;;;;;9.60;97.90;;;;;;4937812;28;20463;-86
2021/12/12 14:14:23;;;;;;;56.70;17.38;;;9.60;97.80;;;;;;4947584;28;20025;-86
2021/12/12 14:17:07;;;;;;;105.07;20.92;;;9.60;97.80;;;;;;4952417;28;20051;-86
2021/12/12 14:20:04;;;;;;;107.70;20.75;;;9.60;97.90;;;;;;4953880;28;20106;-86